Wainwright Airport Wainwright US
ICAO: PAWI
IATA:
Category: Medium
Scheduled Services:

Elevation: 41 ft
TransAlt. 18000 ft.

Airport Communications:
ASOS:132.25
ANCHORAGE CNTR:135.3
CTAF:122.8
FAIRBANKS RDO:122.5

PAWI Zoom In..

Runways:

(A) RW 05 length 4494 ft width 110 ft
---- / hdg 50

(B) RW 23 length 4494 ft width 110 ft
---- / hdg 230

Location; PAWI
Day. 30 / Time. 16.23 Zulu
* Altimeter: 29.52
* Temperature: -06° c. -21.2°f.
* Wind from: 180° Speed 17 kn.
Dewpoint: -08° c.
Visibility: 7 Statute Miles.
Clouds: Few 3200 ft.
Conditions: Light Snow.

PAWI 301623Z 18017KT 7SM -SN FEW032 M06/M08 A2952 RMK VIA PHONE

Going to: --> -->


Wind From 180°
Speed 17 kn.

 
 
jpsmedia worldairports.se 2020   terms of use